createdAt,value
2023-02-18T00:00:37.314Z,59.99
2023-02-18T00:02:39.219Z,60.10
2023-02-18T00:04:40.946Z,60.47
2023-02-18T00:06:42.761Z,60.73
2023-02-18T00:08:46.872Z,60.96
2023-02-18T00:10:49.424Z,61.33
2023-02-18T00:12:51.224Z,62.02
2023-02-18T00:14:54.301Z,62.51
2023-02-18T00:16:56.060Z,62.04
2023-02-18T00:18:59.461Z,62.52
2023-02-18T00:21:03.155Z,62.30
2023-02-18T00:23:04.846Z,62.67
2023-02-18T00:25:08.349Z,62.25
2023-02-18T00:27:09.965Z,62.76
2023-02-18T00:29:12.209Z,62.12
2023-02-18T00:31:16.106Z,61.21
2023-02-18T00:33:17.768Z,61.90
2023-02-18T00:35:19.418Z,61.72
2023-02-18T00:37:21.003Z,61.66
2023-02-18T00:39:22.725Z,60.96
2023-02-18T00:41:28.540Z,61.55
2023-02-18T00:43:30.936Z,60.87
2023-02-18T00:45:32.525Z,61.26
2023-02-18T00:47:34.233Z,61.47
2023-02-18T00:49:35.879Z,60.80
2023-02-18T00:51:37.644Z,61.05
2023-02-18T00:53:39.907Z,61.62
2023-02-18T00:55:42.476Z,61.81
2023-02-18T00:57:45.803Z,61.32
2023-02-18T00:59:47.431Z,61.61
2023-02-18T01:01:49.063Z,61.41
2023-02-18T01:03:50.635Z,61.29
2023-02-18T01:05:53.115Z,61.28
2023-02-18T01:07:54.984Z,61.08
2023-02-18T01:09:56.539Z,61.69
2023-02-18T01:11:58.188Z,61.24
2023-02-18T01:14:01.205Z,61.10
2023-02-18T01:16:03.208Z,61.34
2023-02-18T01:18:05.564Z,61.57
2023-02-18T01:20:09.113Z,61.28
2023-02-18T01:22:10.803Z,61.82
2023-02-18T01:24:12.392Z,61.54
2023-02-18T01:26:14.139Z,61.17
2023-02-18T01:28:16.275Z,61.82
2023-02-18T01:30:20.253Z,61.27
2023-02-18T01:32:22.127Z,61.52
2023-02-18T01:34:23.698Z,61.90
2023-02-18T01:36:25.339Z,61.87
2023-02-18T01:38:27.024Z,61.96
2023-02-18T01:40:30.380Z,62.18
2023-02-18T01:42:32.033Z,62.39
2023-02-18T01:44:34.395Z,62.27
2023-02-18T01:46:37.468Z,62.48
2023-02-18T01:48:42.953Z,62.74
2023-02-18T01:50:47.847Z,62.89
2023-02-18T01:52:49.439Z,62.98
2023-02-18T01:54:54.709Z,63.17
2023-02-18T01:57:00.121Z,63.02
2023-02-18T01:59:07.880Z,63.10
2023-02-18T02:01:10.297Z,62.75
2023-02-18T02:03:13.398Z,62.75
2023-02-18T02:05:16.149Z,62.11
2023-02-18T02:07:21.493Z,62.58
2023-02-18T02:09:26.845Z,62.68
2023-02-18T02:12:10.630Z,62.45
2023-02-18T02:14:35.867Z,62.35
2023-02-18T02:16:44.062Z,61.84
2023-02-18T02:19:00.627Z,62.20
2023-02-18T02:21:39.941Z,61.77
2023-02-18T02:24:04.798Z,61.79
2023-02-18T02:26:38.735Z,61.67
2023-02-18T02:29:24.921Z,61.36
2023-02-18T02:32:01.429Z,61.73
2023-02-18T02:34:38.994Z,61.34
2023-02-18T02:36:50.688Z,62.01
2023-02-18T02:38:57.108Z,61.74
2023-02-18T02:41:08.524Z,61.75
2023-02-18T02:43:18.226Z,61.64
2023-02-18T02:45:29.166Z,62.07
2023-02-18T02:47:41.302Z,62.00
2023-02-18T02:49:50.976Z,61.76
2023-02-18T02:52:00.675Z,61.88
2023-02-18T02:54:16.168Z,61.74
2023-02-18T02:56:19.875Z,61.37
2023-02-18T02:58:22.408Z,61.46
2023-02-18T03:00:35.345Z,61.91
2023-02-18T03:02:49.317Z,61.83
2023-02-18T03:05:10.822Z,62.35
2023-02-18T03:07:48.767Z,62.16
2023-02-18T03:10:08.196Z,62.38
2023-02-18T03:12:19.425Z,62.83
2023-02-18T03:14:28.592Z,62.21
2023-02-18T03:16:37.794Z,62.40
2023-02-18T03:18:43.845Z,63.00
2023-02-18T03:20:54.313Z,62.81
2023-02-18T03:23:02.062Z,63.74
2023-02-18T03:25:04.936Z,63.95
2023-02-18T03:27:12.579Z,63.46
2023-02-18T03:29:18.684Z,63.47
2023-02-18T03:31:23.974Z,63.96
2023-02-18T03:33:30.533Z,64.16
2023-02-18T03:35:32.949Z,64.28
2023-02-18T03:37:41.332Z,64.22
2023-02-18T03:39:48.429Z,64.54
2023-02-18T03:41:50.310Z,63.92
2023-02-18T03:43:52.338Z,64.83
2023-02-18T03:45:54.357Z,64.56
2023-02-18T03:47:56.047Z,64.59
2023-02-18T03:49:58.080Z,64.58
2023-02-18T03:51:59.962Z,64.36
2023-02-18T03:54:01.659Z,64.86
2023-02-18T03:56:06.691Z,64.97
2023-02-18T03:58:08.751Z,64.50
2023-02-18T04:00:11.464Z,64.69
2023-02-18T04:02:13.208Z,65.13
2023-02-18T04:04:14.850Z,65.28
2023-02-18T04:06:16.618Z,65.16
2023-02-18T04:08:18.241Z,65.31
2023-02-18T04:10:20.258Z,65.13
2023-02-18T04:12:24.828Z,65.42
2023-02-18T04:14:26.605Z,64.86
2023-02-18T04:16:28.318Z,65.15
2023-02-18T04:18:30.178Z,64.81
2023-02-18T04:20:31.811Z,65.44
2023-02-18T04:22:33.820Z,65.08
2023-02-18T04:24:35.490Z,65.66
2023-02-18T04:26:37.254Z,65.63
2023-02-18T04:28:40.303Z,65.59
2023-02-18T04:30:42.393Z,65.10
2023-02-18T04:32:44.031Z,65.53
2023-02-18T04:34:45.882Z,65.84
2023-02-18T04:36:48.352Z,64.87
2023-02-18T04:38:50.033Z,65.27
2023-02-18T04:40:51.835Z,65.02
2023-02-18T04:42:53.947Z,65.40
2023-02-18T04:44:57.321Z,65.58
2023-02-18T04:46:59.155Z,65.28
2023-02-18T04:49:01.044Z,65.14
2023-02-18T04:51:02.772Z,64.65
2023-02-18T04:53:04.384Z,64.74
2023-02-18T04:55:07.295Z,64.72
2023-02-18T04:57:08.924Z,64.94
2023-02-18T04:59:11.254Z,65.46
2023-02-18T05:01:14.889Z,65.46
2023-02-18T05:03:17.400Z,65.08
2023-02-18T05:05:19.392Z,65.56
2023-02-18T05:07:21.155Z,64.98
2023-02-18T05:09:23.322Z,65.29
2023-02-18T05:11:25.101Z,65.55
2023-02-18T05:13:26.978Z,65.83
2023-02-18T05:15:28.586Z,65.63
2023-02-18T05:17:33.255Z,65.71
2023-02-18T05:19:35.111Z,65.82
2023-02-18T05:21:36.975Z,65.53
2023-02-18T05:23:38.877Z,65.78
2023-02-18T05:25:42.020Z,66.33
2023-02-18T05:27:44.127Z,66.44
2023-02-18T05:29:45.823Z,66.12
2023-02-18T05:31:47.821Z,66.57
2023-02-18T05:33:52.503Z,66.66
2023-02-18T05:35:54.367Z,67.05
2023-02-18T05:37:56.197Z,67.13
2023-02-18T05:39:58.088Z,66.88
2023-02-18T05:41:59.632Z,66.80
2023-02-18T05:44:01.556Z,67.00
2023-02-18T05:46:03.204Z,67.40
2023-02-18T05:48:05.399Z,67.47
2023-02-18T05:50:09.911Z,67.02
2023-02-18T05:52:12.203Z,67.32
2023-02-18T05:54:14.071Z,67.09
2023-02-18T05:56:15.884Z,67.28
2023-02-18T05:58:17.895Z,67.09
2023-02-18T06:00:19.810Z,67.28
2023-02-18T06:02:21.487Z,67.09
2023-02-18T06:04:23.459Z,67.28
2023-02-18T06:06:26.822Z,67.48
2023-02-18T06:08:28.482Z,66.83
2023-02-18T06:10:30.049Z,67.51
2023-02-18T06:12:31.631Z,67.57
2023-02-18T06:14:33.610Z,67.51
2023-02-18T06:16:35.212Z,67.67
2023-02-18T06:18:36.832Z,67.74
2023-02-18T06:20:39.370Z,67.71
2023-02-18T06:22:42.474Z,67.46
2023-02-18T06:24:44.132Z,67.37
2023-02-18T06:26:45.778Z,67.10
2023-02-18T06:28:47.578Z,67.54
2023-02-18T06:30:49.735Z,67.54
2023-02-18T06:32:51.410Z,68.04
2023-02-18T06:34:54.274Z,67.61
2023-02-18T06:36:55.821Z,67.54
2023-02-18T06:38:59.110Z,67.89
2023-02-18T06:41:01.223Z,67.47
2023-02-18T06:43:03.252Z,67.43
2023-02-18T06:45:05.158Z,67.27
2023-02-18T06:47:06.728Z,67.11
2023-02-18T06:49:08.343Z,67.19
2023-02-18T06:51:10.403Z,66.99
2023-02-18T06:53:12.815Z,67.50
2023-02-18T06:55:15.904Z,66.68
2023-02-18T06:57:17.518Z,66.76
2023-02-18T06:59:19.365Z,66.95
2023-02-18T07:01:21.122Z,67.24
2023-02-18T07:03:23.282Z,66.85
2023-02-18T07:05:24.925Z,67.12
2023-02-18T07:07:26.614Z,66.56
2023-02-18T07:09:28.669Z,67.19
2023-02-18T07:11:32.584Z,66.62
2023-02-18T07:13:34.646Z,67.21
2023-02-18T07:15:36.220Z,66.98
2023-02-18T07:17:37.858Z,67.38
2023-02-18T07:19:39.692Z,67.38
2023-02-18T07:21:41.213Z,67.48
2023-02-18T07:23:42.872Z,68.33
2023-02-18T07:25:44.431Z,68.24
2023-02-18T07:27:47.557Z,68.72
2023-02-18T07:29:49.306Z,68.84
2023-02-18T07:31:51.288Z,68.98
2023-02-18T07:33:53.841Z,68.46
2023-02-18T07:35:56.002Z,68.98
2023-02-18T07:37:57.652Z,69.26
2023-02-18T07:39:59.423Z,68.88
2023-02-18T07:42:02.395Z,69.18
2023-02-18T07:44:06.155Z,68.89
2023-02-18T07:46:08.205Z,69.23
2023-02-18T07:48:10.604Z,69.59
2023-02-18T07:50:12.391Z,69.66
2023-02-18T07:52:14.947Z,69.16
2023-02-18T07:54:17.723Z,69.51
2023-02-18T07:56:19.323Z,69.48
2023-02-18T07:58:23.842Z,69.42
2023-02-18T08:00:27.052Z,69.71
2023-02-18T08:02:28.964Z,69.40
2023-02-18T08:04:31.047Z,69.61
2023-02-18T08:06:36.704Z,69.46
2023-02-18T08:08:38.333Z,69.33
2023-02-18T08:10:40.005Z,69.32
2023-02-18T08:12:41.614Z,69.19
2023-02-18T08:14:43.417Z,68.90
2023-02-18T08:16:46.722Z,69.23
2023-02-18T08:18:49.458Z,69.12
2023-02-18T08:20:51.998Z,69.23
2023-02-18T08:22:53.623Z,69.15
2023-02-18T08:24:56.383Z,69.29
2023-02-18T08:27:01.179Z,69.31
2023-02-18T08:29:03.632Z,68.78
2023-02-18T08:31:05.720Z,69.29
2023-02-18T08:33:09.736Z,68.62
2023-02-18T08:35:13.735Z,68.73
2023-02-18T08:37:15.528Z,68.48
2023-02-18T08:39:17.209Z,68.40
2023-02-18T08:41:19.206Z,67.72
2023-02-18T08:43:21.284Z,67.89
2023-02-18T08:45:23.121Z,67.44
2023-02-18T08:48:19.641Z,67.68
2023-02-18T08:49:47.873Z,67.23
2023-02-18T08:51:49.800Z,67.46
2023-02-18T08:53:51.438Z,66.88
2023-02-18T08:55:53.024Z,66.68
2023-02-18T08:57:54.628Z,66.37
2023-02-18T08:59:56.586Z,66.30
2023-02-18T09:01:58.137Z,66.00
2023-02-18T09:03:59.872Z,65.20
2023-02-18T09:06:04.298Z,66.06
2023-02-18T09:08:06.064Z,65.80
2023-02-18T09:10:10.026Z,66.03
2023-02-18T09:12:11.841Z,65.65
2023-02-18T09:14:13.709Z,65.35
2023-02-18T09:16:17.275Z,64.99
2023-02-18T09:18:19.181Z,65.15
2023-02-18T09:20:21.014Z,65.11
2023-02-18T09:22:24.395Z,65.15
2023-02-18T09:24:25.953Z,65.41
2023-02-18T09:26:27.676Z,65.23
2023-02-18T09:28:29.254Z,64.70
2023-02-18T09:30:30.930Z,64.56
2023-02-18T09:32:34.994Z,64.86
2023-02-18T09:34:37.274Z,64.88
2023-02-18T09:36:39.593Z,64.53
2023-02-18T09:38:45.263Z,65.19
2023-02-18T09:40:52.223Z,65.00
2023-02-18T09:42:55.524Z,64.36
2023-02-18T09:45:01.193Z,63.90
2023-02-18T09:47:06.731Z,64.26
2023-02-18T09:49:16.252Z,63.97
2023-02-18T09:51:19.074Z,63.23
2023-02-18T09:53:21.758Z,63.62
2023-02-18T09:55:29.207Z,63.95
2023-02-18T09:57:44.601Z,64.48
2023-02-18T09:59:48.191Z,63.93
2023-02-18T10:01:52.818Z,63.45
2023-02-18T10:03:58.458Z,63.73
2023-02-18T10:06:05.593Z,63.70
2023-02-18T10:08:14.545Z,62.93
2023-02-18T10:10:21.198Z,63.13
2023-02-18T10:12:26.393Z,63.62
2023-02-18T10:14:29.160Z,63.08
2023-02-18T10:16:31.319Z,63.25
2023-02-18T10:18:39.757Z,64.00
2023-02-18T10:20:41.356Z,64.17
2023-02-18T10:22:43.023Z,63.90
2023-02-18T10:24:48.300Z,63.83
2023-02-18T10:26:50.592Z,64.12
2023-02-18T10:28:54.004Z,63.12
2023-02-18T10:31:02.025Z,64.12
2023-02-18T10:33:32.559Z,64.13
2023-02-18T10:35:44.343Z,64.63
2023-02-18T10:38:01.783Z,64.79
2023-02-18T10:40:20.529Z,65.18
2023-02-18T10:42:32.727Z,64.57
2023-02-18T10:44:50.605Z,65.14
2023-02-18T10:47:06.138Z,64.69
2023-02-18T10:49:31.701Z,64.86
2023-02-18T10:51:35.512Z,64.69
2023-02-18T10:53:41.464Z,65.07
2023-02-18T10:55:45.796Z,65.44
2023-02-18T10:57:50.339Z,65.96
2023-02-18T11:00:00.092Z,65.95
2023-02-18T11:02:05.052Z,66.00
2023-02-18T11:04:13.788Z,66.28
2023-02-18T11:06:19.780Z,67.24
2023-02-18T11:08:24.575Z,67.18
2023-02-18T11:10:31.136Z,68.03
2023-02-18T11:12:44.426Z,67.75
2023-02-18T11:14:48.851Z,67.84
2023-02-18T11:16:53.633Z,68.02
2023-02-18T11:18:55.247Z,67.60
2023-02-18T11:21:00.414Z,67.40
2023-02-18T11:23:20.316Z,67.37
2023-02-18T11:25:25.529Z,67.51
2023-02-18T11:27:32.453Z,67.13
2023-02-18T11:29:35.704Z,66.76
2023-02-18T11:31:42.328Z,67.86
2023-02-18T11:33:50.486Z,67.19
2023-02-18T11:35:55.877Z,68.23
2023-02-18T11:37:59.232Z,68.09
2023-02-18T11:40:04.826Z,67.77
2023-02-18T11:42:07.261Z,67.97
2023-02-18T11:44:24.742Z,68.58
2023-02-18T11:46:27.812Z,68.02
2023-02-18T11:48:29.970Z,68.84
2023-02-18T11:50:34.583Z,68.38
2023-02-18T11:52:41.259Z,68.88
2023-02-18T11:54:43.079Z,69.20
2023-02-18T11:56:56.800Z,68.62
2023-02-18T11:59:00.103Z,67.66
2023-02-18T12:01:06.815Z,69.05
2023-02-18T12:03:24.313Z,68.80
2023-02-18T12:05:28.364Z,68.13
2023-02-18T12:07:41.454Z,69.15
2023-02-18T12:09:48.532Z,69.72
2023-02-18T12:11:56.386Z,69.21
2023-02-18T12:13:59.279Z,69.27
2023-02-18T12:16:12.003Z,69.59
2023-02-18T12:18:56.466Z,69.24
2023-02-18T12:21:15.703Z,69.74
2023-02-18T12:23:30.609Z,70.48
2023-02-18T12:25:41.943Z,70.31
2023-02-18T12:27:52.340Z,70.64
2023-02-18T12:30:21.735Z,71.36
2023-02-18T12:32:36.520Z,70.83
2023-02-18T12:34:53.662Z,70.78
2023-02-18T12:37:11.316Z,70.51
2023-02-18T12:39:30.628Z,70.62
2023-02-18T12:42:02.372Z,70.73
2023-02-18T12:44:18.506Z,71.45
2023-02-18T12:46:32.391Z,70.97
2023-02-18T12:48:48.480Z,71.73
2023-02-18T12:51:02.550Z,71.16
2023-02-18T12:53:24.905Z,71.17
2023-02-18T12:55:43.709Z,71.95
2023-02-18T12:57:54.020Z,72.20
2023-02-18T13:00:32.103Z,72.05
2023-02-18T13:02:53.233Z,71.73
2023-02-18T13:05:04.686Z,72.53
2023-02-18T13:07:35.199Z,72.43
2023-02-18T13:09:54.690Z,72.73
2023-02-18T13:12:08.154Z,72.30
2023-02-18T13:14:14.604Z,73.47
2023-02-18T13:16:19.463Z,73.12
2023-02-18T13:18:26.913Z,73.05
2023-02-18T13:20:38.599Z,72.82
2023-02-18T13:22:42.095Z,73.29
2023-02-18T13:24:46.235Z,73.33
2023-02-18T13:26:50.955Z,73.96
2023-02-18T13:29:09.704Z,72.89
2023-02-18T13:31:22.372Z,73.65
2023-02-18T13:33:35.945Z,73.94
2023-02-18T13:35:43.086Z,73.96
2023-02-18T13:37:56.338Z,73.48
2023-02-18T13:40:00.464Z,73.13
2023-02-18T13:42:24.055Z,72.75
2023-02-18T13:45:02.333Z,72.83
2023-02-18T13:47:03.975Z,73.75
2023-02-18T13:49:11.386Z,73.48
2023-02-18T13:51:16.264Z,73.93
2023-02-18T13:53:24.894Z,73.84
2023-02-18T13:55:38.433Z,73.93
2023-02-18T13:57:40.936Z,74.99
2023-02-18T13:59:47.666Z,74.47
2023-02-18T14:01:51.573Z,74.12
2023-02-18T14:03:57.088Z,74.78
2023-02-18T14:05:59.840Z,74.76
2023-02-18T14:08:12.832Z,73.87
2023-02-18T14:10:32.991Z,73.94
2023-02-18T14:12:41.281Z,73.79
2023-02-18T14:14:45.112Z,74.42
2023-02-18T14:17:28.929Z,73.99
2023-02-18T14:19:31.517Z,74.08
2023-02-18T14:21:42.842Z,74.12
2023-02-18T14:23:57.172Z,74.45
2023-02-18T14:26:06.921Z,73.92
2023-02-18T14:28:38.300Z,73.64
2023-02-18T14:30:43.028Z,73.88
2023-02-18T14:32:45.649Z,74.52
2023-02-18T14:35:11.664Z,74.19
2023-02-18T14:38:05.940Z,73.95
2023-02-18T14:40:24.475Z,73.71
2023-02-18T14:42:38.425Z,74.38
2023-02-18T14:44:56.387Z,73.82
2023-02-18T14:47:20.999Z,74.08
2023-02-18T14:49:43.226Z,74.12
2023-02-18T14:51:46.830Z,74.13
2023-02-18T14:53:48.791Z,74.09
2023-02-18T14:55:54.194Z,74.68
2023-02-18T14:58:02.585Z,74.65
2023-02-18T15:00:06.521Z,74.37
2023-02-18T15:02:23.421Z,74.27
2023-02-18T15:04:26.387Z,74.62
2023-02-18T15:06:31.866Z,74.23
2023-02-18T15:08:39.055Z,74.28
2023-02-18T15:10:44.379Z,74.14
2023-02-18T15:12:46.220Z,73.87
2023-02-18T15:14:52.798Z,73.97
2023-02-18T15:16:55.035Z,73.82
2023-02-18T15:19:00.912Z,74.03
2023-02-18T15:21:04.685Z,74.57
2023-02-18T15:23:06.596Z,74.63
2023-02-18T15:25:13.202Z,74.69
2023-02-18T15:27:18.593Z,74.04
2023-02-18T15:29:22.611Z,74.53
2023-02-18T15:31:30.411Z,74.17
2023-02-18T15:33:32.311Z,74.42
2023-02-18T15:35:35.274Z,73.83
2023-02-18T15:37:36.912Z,73.41
2023-02-18T15:39:40.454Z,73.59
2023-02-18T15:41:42.247Z,73.91
2023-02-18T15:43:54.159Z,73.97
2023-02-18T15:45:58.901Z,74.73
2023-02-18T15:48:01.255Z,74.52
2023-02-18T15:50:03.724Z,73.59
2023-02-18T15:52:07.883Z,73.88
2023-02-18T15:54:18.233Z,73.97
2023-02-18T15:56:26.746Z,74.08
2023-02-18T15:58:32.481Z,74.20
2023-02-18T16:00:43.822Z,73.75
2023-02-18T16:02:54.717Z,73.55
2023-02-18T16:05:05.105Z,73.55
2023-02-18T16:07:23.304Z,73.11
2023-02-18T16:09:30.306Z,73.48
2023-02-18T16:11:36.128Z,73.88
2023-02-18T16:13:45.761Z,74.09
2023-02-18T16:15:50.035Z,73.69
2023-02-18T16:17:52.492Z,74.16
2023-02-18T16:20:04.845Z,74.12
2023-02-18T16:22:24.957Z,73.66
2023-02-18T16:24:29.518Z,73.80
2023-02-18T16:26:40.717Z,73.58
2023-02-18T16:28:43.353Z,74.15
2023-02-18T16:30:46.300Z,74.01
2023-02-18T16:32:48.369Z,74.11
2023-02-18T16:34:50.003Z,74.36
2023-02-18T16:36:51.802Z,74.18
2023-02-18T16:38:54.976Z,73.53
2023-02-18T16:40:56.882Z,74.35
2023-02-18T16:43:00.288Z,74.57
2023-02-18T16:45:01.859Z,74.05
2023-02-18T16:47:03.911Z,73.84
2023-02-18T16:49:05.447Z,74.02
2023-02-18T16:51:11.394Z,74.45
2023-02-18T16:53:14.085Z,74.45
2023-02-18T16:55:20.943Z,74.49
2023-02-18T16:57:22.723Z,74.50
2023-02-18T16:59:24.317Z,74.32
2023-02-18T17:01:28.664Z,75.02
2023-02-18T17:03:31.750Z,74.72
2023-02-18T17:05:35.088Z,75.02
2023-02-18T17:07:36.690Z,74.98
2023-02-18T17:09:40.075Z,74.81
2023-02-18T17:11:44.720Z,75.16
2023-02-18T17:13:46.862Z,75.07
2023-02-18T17:15:51.785Z,75.04
2023-02-18T17:17:53.866Z,74.78
2023-02-18T17:19:55.601Z,75.04
2023-02-18T17:21:57.415Z,75.15
2023-02-18T17:23:58.998Z,75.04
2023-02-18T17:26:00.957Z,75.22
2023-02-18T17:28:05.062Z,75.70
2023-02-18T17:30:07.317Z,75.27
2023-02-18T17:32:08.964Z,75.78
2023-02-18T17:34:15.420Z,75.32
2023-02-18T17:36:18.165Z,75.87
2023-02-18T17:38:20.233Z,75.79
2023-02-18T17:40:25.853Z,75.72
2023-02-18T17:42:27.428Z,75.81
2023-02-18T17:44:31.619Z,75.81
2023-02-18T17:46:33.213Z,76.08
2023-02-18T17:48:34.858Z,75.49
2023-02-18T17:50:36.721Z,75.61
2023-02-18T17:52:38.528Z,75.52
2023-02-18T17:54:40.089Z,75.37
2023-02-18T17:56:41.923Z,75.50
2023-02-18T17:58:43.477Z,76.03
2023-02-18T18:00:49.530Z,76.25
2023-02-18T18:02:51.604Z,76.51
2023-02-18T18:04:54.248Z,75.93
2023-02-18T18:06:56.229Z,76.07
2023-02-18T18:08:58.887Z,76.38
2023-02-18T18:11:01.724Z,75.82
2023-02-18T18:13:05.763Z,75.85
2023-02-18T18:15:21.269Z,76.18
2023-02-18T18:17:24.462Z,76.56
2023-02-18T18:19:26.114Z,76.36
2023-02-18T18:21:31.027Z,76.63
2023-02-18T18:23:33.095Z,76.53
2023-02-18T18:25:38.550Z,76.35
2023-02-18T18:27:40.403Z,76.14
2023-02-18T18:29:44.530Z,76.45
2023-02-18T18:31:47.401Z,76.43
2023-02-18T18:33:52.152Z,76.76
2023-02-18T18:35:55.989Z,76.85
2023-02-18T18:37:58.485Z,76.92
2023-02-18T18:40:01.133Z,77.01
2023-02-18T18:42:02.805Z,76.94
2023-02-18T18:44:05.064Z,76.71
2023-02-18T18:46:06.802Z,77.15
2023-02-18T18:48:08.506Z,77.78
2023-02-18T18:50:11.742Z,77.51
2023-02-18T18:52:16.305Z,77.05
2023-02-18T18:54:18.264Z,78.12
2023-02-18T18:56:20.205Z,78.00
2023-02-18T18:58:21.962Z,78.28
2023-02-18T19:00:26.246Z,78.04
2023-02-18T19:02:28.241Z,77.88
2023-02-18T19:04:29.881Z,78.76
2023-02-18T19:06:33.083Z,78.56
2023-02-18T19:08:34.707Z,78.13
2023-02-18T19:10:38.301Z,78.27
2023-02-18T19:12:40.308Z,78.58
2023-02-18T19:14:41.839Z,78.55
2023-02-18T19:16:43.412Z,79.17
2023-02-18T19:18:45.709Z,78.77
2023-02-18T19:20:48.318Z,78.84
2023-02-18T19:22:52.013Z,78.95
2023-02-18T19:24:53.685Z,78.42
2023-02-18T19:26:55.323Z,78.31
2023-02-18T19:28:56.977Z,78.97
2023-02-18T19:30:58.693Z,79.08
2023-02-18T19:33:01.699Z,78.77
2023-02-18T19:35:03.664Z,79.38
2023-02-18T19:37:05.488Z,79.43
2023-02-18T19:39:09.510Z,79.66
2023-02-18T19:41:14.565Z,79.78
2023-02-18T19:43:16.607Z,78.99
2023-02-18T19:45:20.988Z,78.99
2023-02-18T19:47:23.635Z,79.95
2023-02-18T19:49:26.360Z,79.33
2023-02-18T19:51:28.148Z,79.17
2023-02-18T19:53:30.257Z,79.56
2023-02-18T19:55:34.510Z,79.05
2023-02-18T19:57:36.346Z,79.27
2023-02-18T19:59:38.128Z,79.06
2023-02-18T20:01:40.485Z,78.89
2023-02-18T20:03:42.882Z,78.81
2023-02-18T20:05:44.606Z,78.65
2023-02-18T20:07:46.687Z,79.44
2023-02-18T20:09:52.024Z,79.03
2023-02-18T20:11:56.691Z,78.92
2023-02-18T20:13:58.388Z,78.91
2023-02-18T20:16:00.202Z,78.97
2023-02-18T20:18:02.032Z,79.08
2023-02-18T20:20:04.247Z,78.72
2023-02-18T20:22:05.928Z,78.65
2023-02-18T20:24:10.006Z,79.10
2023-02-18T20:26:13.256Z,79.39
2023-02-18T20:28:16.527Z,79.21
2023-02-18T20:30:19.639Z,79.35
2023-02-18T20:32:24.365Z,79.95
2023-02-18T20:34:26.700Z,79.79
2023-02-18T20:36:28.949Z,79.17
2023-02-18T20:38:31.083Z,79.13
2023-02-18T20:40:32.685Z,79.08
2023-02-18T20:42:34.282Z,79.50
2023-02-18T20:44:37.699Z,79.63
2023-02-18T20:46:39.924Z,79.74
2023-02-18T20:48:43.739Z,79.71
2023-02-18T20:50:45.273Z,80.04
2023-02-18T20:52:48.334Z,79.52
2023-02-18T20:54:51.450Z,79.57
2023-02-18T20:56:53.036Z,79.62
2023-02-18T20:58:54.757Z,79.46
2023-02-18T21:01:00.010Z,80.09
2023-02-18T21:03:01.759Z,79.90
2023-02-18T21:05:03.929Z,79.76
2023-02-18T21:07:05.864Z,80.36
2023-02-18T21:09:07.894Z,80.19
2023-02-18T21:11:12.201Z,80.36
2023-02-18T21:13:15.742Z,79.89
2023-02-18T21:15:17.418Z,79.89
2023-02-18T21:17:23.286Z,80.63
2023-02-18T21:19:25.372Z,79.73
2023-02-18T21:21:27.278Z,79.93
2023-02-18T21:23:29.268Z,80.07
2023-02-18T21:25:31.517Z,80.19
2023-02-18T21:27:33.168Z,79.86
2023-02-18T21:29:34.921Z,79.90
2023-02-18T21:31:39.041Z,79.66
2023-02-18T21:33:44.738Z,80.20
2023-02-18T21:35:46.741Z,80.53
2023-02-18T21:37:48.904Z,79.74
2023-02-18T21:39:50.476Z,79.94
2023-02-18T21:41:52.183Z,79.72
2023-02-18T21:43:54.422Z,80.42
2023-02-18T21:46:05.695Z,80.32
2023-02-18T21:48:07.226Z,80.32
2023-02-18T21:50:11.363Z,80.48
2023-02-18T21:52:12.922Z,79.94
2023-02-18T21:54:15.683Z,79.50
2023-02-18T21:56:17.443Z,79.76
2023-02-18T21:58:19.089Z,79.52
2023-02-18T22:00:21.435Z,79.48
2023-02-18T22:02:25.392Z,79.50
2023-02-18T22:04:29.832Z,79.87
2023-02-18T22:06:33.115Z,79.97
2023-02-18T22:08:34.905Z,80.11
2023-02-18T22:10:38.460Z,79.73
2023-02-18T22:12:40.382Z,79.82
2023-02-18T22:14:42.668Z,79.82
2023-02-18T22:16:45.454Z,80.11
2023-02-18T22:18:48.699Z,80.07
2023-02-18T22:20:50.645Z,80.07
2023-02-18T22:22:54.980Z,79.78
2023-02-18T22:24:56.747Z,80.18
2023-02-18T22:26:59.636Z,80.21
2023-02-18T22:29:01.583Z,79.50
2023-02-18T22:31:06.874Z,79.49
2023-02-18T22:33:08.545Z,80.22
2023-02-18T22:35:10.159Z,79.56
2023-02-18T22:37:11.884Z,79.72
2023-02-18T22:39:16.085Z,79.38
2023-02-18T22:41:22.457Z,79.89
2023-02-18T22:43:23.978Z,79.91
2023-02-18T22:45:25.982Z,79.48
2023-02-18T22:47:28.106Z,79.63
2023-02-18T22:49:30.208Z,79.44
2023-02-18T22:51:35.616Z,80.36
2023-02-18T22:53:38.134Z,79.39
2023-02-18T22:55:41.161Z,80.13
2023-02-18T22:57:43.032Z,79.29
2023-02-18T22:59:45.653Z,80.34
2023-02-18T23:01:49.425Z,80.33
2023-02-18T23:03:52.594Z,80.28
2023-02-18T23:05:54.437Z,79.92
2023-02-18T23:07:56.297Z,80.35
2023-02-18T23:09:58.128Z,79.90
2023-02-18T23:12:01.600Z,80.24
2023-02-18T23:14:03.272Z,80.38
2023-02-18T23:16:08.318Z,80.26
2023-02-18T23:18:09.889Z,80.52
2023-02-18T23:20:11.469Z,80.45
2023-02-18T23:22:16.114Z,79.96
2023-02-18T23:24:18.108Z,80.57
2023-02-18T23:26:21.542Z,80.75
2023-02-18T23:28:24.542Z,79.82
2023-02-18T23:30:26.198Z,80.06
2023-02-18T23:32:29.039Z,80.17
2023-02-18T23:34:31.031Z,80.22
2023-02-18T23:36:34.664Z,80.04
2023-02-18T23:38:36.471Z,79.95
2023-02-18T23:40:38.542Z,79.48
2023-02-18T23:42:40.392Z,79.47
2023-02-18T23:44:43.574Z,80.08
2023-02-18T23:46:46.209Z,79.50
2023-02-18T23:48:47.953Z,79.53
2023-02-18T23:50:49.637Z,80.23
2023-02-18T23:52:54.841Z,79.31
2023-02-18T23:54:56.471Z,79.57
2023-02-18T23:56:58.358Z,79.85
2023-02-18T23:59:02.360Z,79.33
